Orion — VRBZ2 — position and weather

sailwx.info

Track history (hours):
 
Tides and Currents Weather Stations Pressure Air Temp Water Temp Dewpoint Dewpoint Depression Visibility Wind Speed Wind Dir Waves Ship Positions

Orion

Last reported at 2017-Sep-03 06:35 UTC. Time now 2017-Sep-21 01:38 UTC.
Position N 29°35' W 093°17'.
Warning: this ship's position is 17 days out of date.

Length 181 m; draft 10.3 m.

Type: Tanker. MMSI: 477241100.

Date/timePositionNaut miles runAvg speedWind from/ knotsBaromVisibWave heightAir tempDewpointWater temp
2017-Sep-03 06:35N 29°35' W 093°17'112.0
2017-Sep-03 06:29N 29°36' W 093°18'510.6
2017-Sep-03 06:00N 29°41' W 093°20'5 9.5
2017-Sep-03 05:30N 29°46' W 093°21'5 9.5
2017-Sep-03 05:00N 29°51' W 093°21'5 9.6
2017-Sep-03 04:30N 29°55' W 093°20'4 8.8
2017-Sep-03 04:00N 29°60' W 093°20'4 7.8
2017-Sep-03 03:30N 30°04' W 093°20'4 7.6
2017-Sep-03 03:00N 30°08' W 093°20'3 5.9
2017-Sep-03 02:30N 30°10' W 093°19'1 1.4
2017-Sep-03 01:58N 30°11' W 093°19'0 0.0
2017-Sep-03 01:30N 30°11' W 093°19'0 0.0
2017-Sep-03 01:00N 30°11' W 093°19'0 0.0
2017-Sep-03 00:30N 30°11' W 093°19'0 0.0
2017-Sep-03 00:00N 30°11' W 093°19'0 0.0
2017-Sep-02 23:30N 30°11' W 093°19'0 0.0
2017-Sep-02 23:00N 30°11' W 093°19'0 0.0
2017-Sep-02 22:30N 30°11' W 093°19'0 0.0
2017-Sep-02 22:00N 30°11' W 093°19'0 0.0
2017-Sep-02 21:30N 30°11' W 093°19'0 0.0
2017-Sep-02 21:00N 30°11' W 093°19'0 0.0
2017-Sep-02 20:30N 30°11' W 093°19'0 0.0
2017-Sep-02 20:00N 30°11' W 093°19'0 0.0
2017-Sep-02 19:30N 30°11' W 093°19'0 0.0
2017-Sep-02 19:00N 30°11' W 093°19'0 0.0
2017-Sep-02 18:30N 30°11' W 093°19'0 0.0
2017-Sep-02 18:00N 30°11' W 093°19'0 0.0
2017-Sep-02 17:30N 30°11' W 093°19'0 0.0
2017-Sep-02 17:00N 30°11' W 093°19'0 0.0
2017-Sep-02 16:30N 30°11' W 093°19'0 0.0
2017-Sep-02 16:00N 30°11' W 093°19'0 0.0
2017-Sep-02 15:30N 30°11' W 093°19'0 0.0
2017-Sep-02 15:00N 30°11' W 093°19'0 0.0
2017-Sep-02 14:30N 30°11' W 093°19'0 0.0
2017-Sep-02 14:00N 30°11' W 093°19'0 0.0
2017-Sep-02 13:30N 30°11' W 093°19'0 0.0
2017-Sep-02 13:00N 30°11' W 093°19'0 0.0
2017-Sep-02 12:30N 30°11' W 093°19'0 0.0
2017-Sep-02 12:00N 30°11' W 093°19'0 0.0
2017-Sep-02 11:30N 30°11' W 093°19'0 0.0
2017-Sep-02 11:00N 30°11' W 093°19'0 0.0
2017-Sep-02 10:30N 30°11' W 093°19'0 0.0
2017-Sep-02 10:00N 30°11' W 093°19'0 0.0
2017-Sep-02 09:30N 30°11' W 093°19'0 0.0
2017-Sep-02 09:00N 30°11' W 093°19'0 0.0
2017-Sep-02 08:30N 30°11' W 093°19'0 0.0
2017-Sep-02 08:00N 30°11' W 093°19'0 0.0
2017-Sep-02 07:30N 30°11' W 093°19'0 0.0
2017-Sep-02 07:00N 30°11' W 093°19'0 0.0
2017-Sep-02 06:30N 30°11' W 093°19'0 0.0
2017-Sep-02 06:00N 30°11' W 093°19'0 0.0
2017-Sep-02 05:30N 30°11' W 093°19'0 0.0
2017-Sep-02 05:00N 30°11' W 093°19'0 0.0
2017-Sep-02 04:30N 30°11' W 093°19'0 0.0
2017-Sep-02 04:00N 30°11' W 093°19'0 0.0
2017-Sep-02 03:30N 30°11' W 093°19'0 0.0
2017-Sep-02 03:00N 30°11' W 093°19'0 0.0
2017-Sep-02 02:30N 30°11' W 093°19'0 0.0
2017-Sep-02 02:00N 30°11' W 093°19'0 0.0
2017-Sep-02 01:30N 30°11' W 093°19'0 0.0
2017-Sep-02 01:00N 30°11' W 093°19'0 0.0
2017-Sep-02 00:30N 30°11' W 093°19'0 0.0
2017-Sep-02 00:00N 30°11' W 093°19'0 0.0
2017-Sep-01 23:30N 30°11' W 093°19'0 0.0
2017-Sep-01 23:00N 30°11' W 093°19'0 0.0
2017-Sep-01 22:30N 30°11' W 093°19'0 0.0
2017-Sep-01 22:00N 30°11' W 093°19'0 0.0
2017-Sep-01 21:30N 30°11' W 093°19'0 0.0
2017-Sep-01 21:00N 30°11' W 093°19'0 0.0
2017-Sep-01 20:30N 30°11' W 093°19'0 0.0
2017-Sep-01 20:00N 30°11' W 093°19'0 0.0
2017-Sep-01 19:30N 30°11' W 093°19'0 0.0
2017-Sep-01 19:00N 30°11' W 093°19'0 0.0
2017-Sep-01 18:30N 30°11' W 093°19'0 0.0
2017-Sep-01 18:00N 30°11' W 093°19'0 0.0
2017-Sep-01 17:30N 30°11' W 093°19'0 0.0
2017-Sep-01 17:00N 30°11' W 093°19'0 0.0
2017-Sep-01 16:30N 30°11' W 093°19'0 0.0
2017-Sep-01 16:00N 30°11' W 093°19'0 0.0
2017-Sep-01 15:30N 30°11' W 093°19'0 0.0
2017-Sep-01 15:00N 30°11' W 093°19'0 0.0
2017-Sep-01 14:30N 30°11' W 093°19'0 0.0
2017-Sep-01 14:00N 30°11' W 093°19'0 0.0
2017-Sep-01 13:30N 30°11' W 093°19'0 0.0
2017-Sep-01 13:00N 30°11' W 093°19'0 0.0
2017-Sep-01 12:30N 30°11' W 093°19'0 0.0
2017-Sep-01 12:00N 30°11' W 093°19'0 0.0
2017-Sep-01 11:30N 30°11' W 093°19'0 0.0
2017-Sep-01 11:00N 30°11' W 093°19'0 0.0
2017-Sep-01 10:30N 30°11' W 093°19'0 0.0
2017-Sep-01 10:00N 30°11' W 093°19'0 0.0
2017-Sep-01 09:30N 30°11' W 093°19'0 0.0
2017-Sep-01 09:00N 30°11' W 093°19'0 0.0
2017-Sep-01 08:30N 30°11' W 093°19'0 0.0
2017-Sep-01 08:00N 30°11' W 093°19'0 0.0
2017-Sep-01 07:30N 30°11' W 093°19'0 0.0
2017-Sep-01 07:00N 30°11' W 093°19'0 0.3
2017-Sep-01 06:30N 30°11' W 093°19'2 3.3
2017-Sep-01 06:00N 30°09' W 093°20'2 4.1
2017-Sep-01 05:30N 30°07' W 093°20'3 5.8
2017-Sep-01 05:00N 30°04' W 093°20'3 5.5
2017-Sep-01 04:30N 30°02' W 093°20'3 5.2
2017-Sep-01 04:00N 29°59' W 093°20'4 7.7
2017-Sep-01 03:30N 29°55' W 093°20'4 7.7
2017-Sep-01 03:00N 29°51' W 093°21'4 7.5
2017-Sep-01 02:30N 29°48' W 093°21'4 8.0
2017-Sep-01 02:00N 29°44' W 093°20'5 9.4
2017-Sep-01 01:29N 29°39' W 093°20'  
2017-Aug-25 19:39N 29°35' W 093°15'0 0.0
2017-Aug-25 19:24N 29°35' W 093°15'0 0.0
2017-Aug-25 02:06N 29°35' W 093°15'0 0.1
2017-Aug-25 01:57N 29°35' W 093°15'0 0.0
2017-Aug-24 22:42N 29°35' W 093°15'0 0.0
2017-Aug-24 22:30N 29°35' W 093°15'0 0.0
2017-Aug-24 21:57N 29°35' W 093°15'0 0.0
2017-Aug-24 14:39N 29°35' W 093°14'0 0.0
2017-Aug-24 14:30N 29°35' W 093°14'0 0.0
2017-Aug-24 13:57N 29°35' W 093°14'0 0.0
2017-Aug-24 12:33N 29°35' W 093°14'0 0.2
2017-Aug-24 12:30N 29°35' W 093°14'0 0.0
2017-Aug-24 11:03N 29°35' W 093°14'0 0.0
2017-Aug-24 10:57N 29°35' W 093°14'0 0.0
2017-Aug-24 10:30N 29°35' W 093°14'0 0.0
2017-Aug-24 09:48N 29°35' W 093°14'0 0.0
2017-Aug-24 09:30N 29°35' W 093°14'  
Track history (hours):
 
Tides and Currents Weather Stations Pressure Air Temp Water Temp Dewpoint Dewpoint Depression Visibility Wind Speed Wind Dir Waves Ship Positions

Orion

Last reported at 2017-Sep-03 06:35 UTC. Time now 2017-Sep-21 01:38 UTC.
Position N 29°35' W 093°17'.
Warning: this ship's position is 17 days out of date.

Length 181 m; draft 10.3 m.

Type: Tanker. MMSI: 477241100.

Date/timePositionNaut miles runAvg speedWind from/ knotsBaromVisibWave heightAir tempDewpointWater temp
2017-Sep-03 06:35N 29°35' W 093°17'112.0
2017-Sep-03 06:29N 29°36' W 093°18'510.6
2017-Sep-03 06:00N 29°41' W 093°20'5 9.5
2017-Sep-03 05:30N 29°46' W 093°21'5 9.5
2017-Sep-03 05:00N 29°51' W 093°21'5 9.6
2017-Sep-03 04:30N 29°55' W 093°20'4 8.8
2017-Sep-03 04:00N 29°60' W 093°20'4 7.8
2017-Sep-03 03:30N 30°04' W 093°20'4 7.6
2017-Sep-03 03:00N 30°08' W 093°20'3 5.9
2017-Sep-03 02:30N 30°10' W 093°19'1 1.4
2017-Sep-03 01:58N 30°11' W 093°19'0 0.0
2017-Sep-03 01:30N 30°11' W 093°19'0 0.0
2017-Sep-03 01:00N 30°11' W 093°19'0 0.0
2017-Sep-03 00:30N 30°11' W 093°19'0 0.0
2017-Sep-03 00:00N 30°11' W 093°19'0 0.0
2017-Sep-02 23:30N 30°11' W 093°19'0 0.0
2017-Sep-02 23:00N 30°11' W 093°19'0 0.0
2017-Sep-02 22:30N 30°11' W 093°19'0 0.0
2017-Sep-02 22:00N 30°11' W 093°19'0 0.0
2017-Sep-02 21:30N 30°11' W 093°19'0 0.0
2017-Sep-02 21:00N 30°11' W 093°19'0 0.0
2017-Sep-02 20:30N 30°11' W 093°19'0 0.0
2017-Sep-02 20:00N 30°11' W 093°19'0 0.0
2017-Sep-02 19:30N 30°11' W 093°19'0 0.0
2017-Sep-02 19:00N 30°11' W 093°19'0 0.0
2017-Sep-02 18:30N 30°11' W 093°19'0 0.0
2017-Sep-02 18:00N 30°11' W 093°19'0 0.0
2017-Sep-02 17:30N 30°11' W 093°19'0 0.0
2017-Sep-02 17:00N 30°11' W 093°19'0 0.0
2017-Sep-02 16:30N 30°11' W 093°19'0 0.0
2017-Sep-02 16:00N 30°11' W 093°19'0 0.0
2017-Sep-02 15:30N 30°11' W 093°19'0 0.0
2017-Sep-02 15:00N 30°11' W 093°19'0 0.0
2017-Sep-02 14:30N 30°11' W 093°19'0 0.0
2017-Sep-02 14:00N 30°11' W 093°19'0 0.0
2017-Sep-02 13:30N 30°11' W 093°19'0 0.0
2017-Sep-02 13:00N 30°11' W 093°19'0 0.0
2017-Sep-02 12:30N 30°11' W 093°19'0 0.0
2017-Sep-02 12:00N 30°11' W 093°19'0 0.0
2017-Sep-02 11:30N 30°11' W 093°19'0 0.0
2017-Sep-02 11:00N 30°11' W 093°19'0 0.0
2017-Sep-02 10:30N 30°11' W 093°19'0 0.0
2017-Sep-02 10:00N 30°11' W 093°19'0 0.0
2017-Sep-02 09:30N 30°11' W 093°19'0 0.0
2017-Sep-02 09:00N 30°11' W 093°19'0 0.0
2017-Sep-02 08:30N 30°11' W 093°19'0 0.0
2017-Sep-02 08:00N 30°11' W 093°19'0 0.0
2017-Sep-02 07:30N 30°11' W 093°19'0 0.0
2017-Sep-02 07:00N 30°11' W 093°19'0 0.0
2017-Sep-02 06:30N 30°11' W 093°19'0 0.0
2017-Sep-02 06:00N 30°11' W 093°19'0 0.0
2017-Sep-02 05:30N 30°11' W 093°19'0 0.0
2017-Sep-02 05:00N 30°11' W 093°19'0 0.0
2017-Sep-02 04:30N 30°11' W 093°19'0 0.0
2017-Sep-02 04:00N 30°11' W 093°19'0 0.0
2017-Sep-02 03:30N 30°11' W 093°19'0 0.0
2017-Sep-02 03:00N 30°11' W 093°19'0 0.0
2017-Sep-02 02:30N 30°11' W 093°19'0 0.0
2017-Sep-02 02:00N 30°11' W 093°19'0 0.0
2017-Sep-02 01:30N 30°11' W 093°19'0 0.0
2017-Sep-02 01:00N 30°11' W 093°19'0 0.0
2017-Sep-02 00:30N 30°11' W 093°19'0 0.0
2017-Sep-02 00:00N 30°11' W 093°19'0 0.0
2017-Sep-01 23:30N 30°11' W 093°19'0 0.0
2017-Sep-01 23:00N 30°11' W 093°19'0 0.0
2017-Sep-01 22:30N 30°11' W 093°19'0 0.0
2017-Sep-01 22:00N 30°11' W 093°19'0 0.0
2017-Sep-01 21:30N 30°11' W 093°19'0 0.0
2017-Sep-01 21:00N 30°11' W 093°19'0 0.0
2017-Sep-01 20:30N 30°11' W 093°19'0 0.0
2017-Sep-01 20:00N 30°11' W 093°19'0 0.0
2017-Sep-01 19:30N 30°11' W 093°19'0 0.0
2017-Sep-01 19:00N 30°11' W 093°19'0 0.0
2017-Sep-01 18:30N 30°11' W 093°19'0 0.0
2017-Sep-01 18:00N 30°11' W 093°19'0 0.0
2017-Sep-01 17:30N 30°11' W 093°19'0 0.0
2017-Sep-01 17:00N 30°11' W 093°19'0 0.0
2017-Sep-01 16:30N 30°11' W 093°19'0 0.0
2017-Sep-01 16:00N 30°11' W 093°19'0 0.0
2017-Sep-01 15:30N 30°11' W 093°19'0 0.0
2017-Sep-01 15:00N 30°11' W 093°19'0 0.0
2017-Sep-01 14:30N 30°11' W 093°19'0 0.0
2017-Sep-01 14:00N 30°11' W 093°19'0 0.0
2017-Sep-01 13:30N 30°11' W 093°19'0 0.0
2017-Sep-01 13:00N 30°11' W 093°19'0 0.0
2017-Sep-01 12:30N 30°11' W 093°19'0 0.0
2017-Sep-01 12:00N 30°11' W 093°19'0 0.0
2017-Sep-01 11:30N 30°11' W 093°19'0 0.0
2017-Sep-01 11:00N 30°11' W 093°19'0 0.0
2017-Sep-01 10:30N 30°11' W 093°19'0 0.0
2017-Sep-01 10:00N 30°11' W 093°19'0 0.0
2017-Sep-01 09:30N 30°11' W 093°19'0 0.0
2017-Sep-01 09:00N 30°11' W 093°19'0 0.0
2017-Sep-01 08:30N 30°11' W 093°19'0 0.0
2017-Sep-01 08:00N 30°11' W 093°19'0 0.0
2017-Sep-01 07:30N 30°11' W 093°19'0 0.0
2017-Sep-01 07:00N 30°11' W 093°19'0 0.3
2017-Sep-01 06:30N 30°11' W 093°19'2 3.3
2017-Sep-01 06:00N 30°09' W 093°20'2 4.1
2017-Sep-01 05:30N 30°07' W 093°20'3 5.8
2017-Sep-01 05:00N 30°04' W 093°20'3 5.5
2017-Sep-01 04:30N 30°02' W 093°20'3 5.2
2017-Sep-01 04:00N 29°59' W 093°20'4 7.7
2017-Sep-01 03:30N 29°55' W 093°20'4 7.7
2017-Sep-01 03:00N 29°51' W 093°21'4 7.5
2017-Sep-01 02:30N 29°48' W 093°21'4 8.0
2017-Sep-01 02:00N 29°44' W 093°20'5 9.4
2017-Sep-01 01:29N 29°39' W 093°20'  
2017-Aug-25 19:39N 29°35' W 093°15'0 0.0
2017-Aug-25 19:24N 29°35' W 093°15'0 0.0
2017-Aug-25 02:06N 29°35' W 093°15'0 0.1
2017-Aug-25 01:57N 29°35' W 093°15'0 0.0
2017-Aug-24 22:42N 29°35' W 093°15'0 0.0
2017-Aug-24 22:30N 29°35' W 093°15'0 0.0
2017-Aug-24 21:57N 29°35' W 093°15'0 0.0
2017-Aug-24 14:39N 29°35' W 093°14'0 0.0
2017-Aug-24 14:30N 29°35' W 093°14'0 0.0
2017-Aug-24 13:57N 29°35' W 093°14'0 0.0
2017-Aug-24 12:33N 29°35' W 093°14'0 0.2
2017-Aug-24 12:30N 29°35' W 093°14'0 0.0
2017-Aug-24 11:03N 29°35' W 093°14'0 0.0
2017-Aug-24 10:57N 29°35' W 093°14'0 0.0
2017-Aug-24 10:30N 29°35' W 093°14'0 0.0
2017-Aug-24 09:48N 29°35' W 093°14'0 0.0
2017-Aug-24 09:30N 29°35' W 093°14'  

Dump ship's entire track history